Time;durP1;ratioP1;P1;durP2;ratioP2;P2;SDS_P1;SDS_P2;PMS_P1;PMS_P2;Temp;Humidity;BMP_temperature;BMP_pressure;BME280_temperature;BME280_humidity;BME280_pressure;Samples;Min_cycle;Max_cycle;Signal;HPM_P1;HPM_P2
2022/10/28 00:01:35;;;;;;;26.65;20.35;;;;;;;13.63;100.00;101652.13;5053076;28;20111;-60
2022/10/28 00:04:01;;;;;;;27.40;19.80;;;;;;;13.59;100.00;101653.88;5052996;28;20025;-61
2022/10/28 00:06:32;;;;;;;26.73;19.02;;;;;;;13.57;100.00;101659.75;5053078;28;20314;-60
2022/10/28 00:08:58;;;;;;;26.50;18.80;;;;;;;13.57;100.00;101656.13;5053376;28;20049;-59
2022/10/28 00:11:32;;;;;;;27.70;19.75;;;;;;;13.50;100.00;101645.44;5053071;28;20029;-60
2022/10/28 00:14:00;;;;;;;27.38;18.42;;;;;;;13.55;100.00;101656.44;5053162;28;20110;-59
2022/10/28 00:16:28;;;;;;;27.95;19.23;;;;;;;13.56;100.00;101658.09;5052899;28;20464;-60
2022/10/28 00:18:54;;;;;;;28.30;19.45;;;;;;;13.55;100.00;101655.63;5052841;28;20057;-60
2022/10/28 00:21:23;;;;;;;29.35;20.42;;;;;;;13.59;100.00;101653.06;5052681;28;20481;-60
2022/10/28 00:23:49;;;;;;;27.65;19.58;;;;;;;13.63;100.00;101651.28;5052691;28;20059;-61
2022/10/28 00:26:20;;;;;;;27.08;18.75;;;;;;;13.62;100.00;101650.50;5052502;28;20045;-60
2022/10/28 00:28:55;;;;;;;27.25;18.15;;;;;;;13.57;100.00;101648.63;5052882;28;20028;-60
2022/10/28 00:31:22;;;;;;;29.15;20.27;;;;;;;13.57;100.00;101651.41;5052724;28;20021;-61
2022/10/28 00:33:48;;;;;;;30.98;19.80;;;;;;;13.52;100.00;101650.69;5052507;28;20021;-60
2022/10/28 00:36:16;;;;;;;29.23;19.55;;;;;;;13.46;100.00;101636.03;5052421;28;20067;-60
2022/10/28 00:38:43;;;;;;;30.95;21.55;;;;;;;13.49;100.00;101656.84;5052385;28;20048;-60
2022/10/28 00:41:09;;;;;;;28.08;18.70;;;;;;;13.45;100.00;101648.28;5052423;28;20461;-59
2022/10/28 00:43:45;;;;;;;29.00;19.10;;;;;;;13.42;100.00;101648.91;5052607;28;20025;-60
2022/10/28 00:46:34;;;;;;;29.05;20.27;;;;;;;13.38;100.00;101643.09;5052600;28;20037;-62
2022/10/28 00:49:04;;;;;;;27.67;18.85;;;;;;;13.30;100.00;101637.44;5052334;28;20025;-61
2022/10/28 00:51:32;;;;;;;31.35;22.15;;;;;;;13.29;100.00;101638.56;5052222;28;20033;-60
2022/10/28 00:53:58;;;;;;;28.20;18.95;;;;;;;13.29;100.00;101635.78;5052324;28;20101;-61
2022/10/28 00:56:26;;;;;;;29.58;19.30;;;;;;;13.23;100.00;101635.84;5052330;28;20025;-61
2022/10/28 00:58:55;;;;;;;28.75;18.45;;;;;;;13.24;100.00;101631.13;5052294;28;20448;-60
2022/10/28 01:01:21;;;;;;;28.05;20.00;;;;;;;13.21;100.00;101631.75;5052258;28;20032;-60
2022/10/28 01:03:46;;;;;;;30.23;19.83;;;;;;;13.20;100.00;101622.59;5051909;28;20075;-61
2022/10/28 01:06:12;;;;;;;28.80;19.92;;;;;;;13.17;100.00;101620.41;5052015;28;20101;-60
2022/10/28 01:08:38;;;;;;;30.27;19.92;;;;;;;13.18;100.00;101616.50;5051984;28;20380;-60
2022/10/28 01:11:33;;;;;;;27.60;19.83;;;;;;;13.14;100.00;101604.34;5050658;28;20106;-61
2022/10/28 01:14:06;;;;;;;27.30;18.95;;;;;;;13.16;100.00;101610.44;5051963;28;20020;-60
2022/10/28 01:16:36;;;;;;;27.52;19.60;;;;;;;13.13;100.00;101604.66;5052160;28;20028;-62
2022/10/28 01:19:36;;;;;;;29.02;19.73;;;;;;;13.14;100.00;101597.97;5051901;28;20111;-60
2022/10/28 01:22:16;;;;;;;27.55;18.75;;;;;;;13.11;100.00;101593.88;5052201;28;20108;-60
2022/10/28 01:25:01;;;;;;;27.40;19.27;;;;;;;13.04;100.00;101585.06;5050792;28;20413;-61
2022/10/28 01:28:05;;;;;;;28.75;18.85;;;;;;;13.06;100.00;101597.56;5051544;28;20043;-60
2022/10/28 01:30:56;;;;;;;29.10;20.30;;;;;;;13.03;100.00;101600.13;5051962;28;20123;-60
2022/10/28 01:33:30;;;;;;;33.22;22.33;;;;;;;13.00;100.00;101598.75;5052208;28;20121;-61
2022/10/28 01:36:08;;;;;;;28.20;18.85;;;;;;;12.93;100.00;101590.84;5051873;28;20477;-61
2022/10/28 01:38:48;;;;;;;28.27;19.42;;;;;;;12.90;100.00;101587.81;5051761;28;20032;-62
2022/10/28 01:41:22;;;;;;;28.60;20.48;;;;;;;12.93;100.00;101601.94;5051785;28;20052;-61
2022/10/28 01:44:03;;;;;;;28.67;20.13;;;;;;;12.85;100.00;101591.50;5052292;28;20064;-61
2022/10/28 01:46:44;;;;;;;27.60;19.58;;;;;;;12.82;100.00;101581.03;5051738;28;20036;-61
2022/10/28 01:49:17;;;;;;;28.30;19.90;;;;;;;12.86;100.00;101592.34;5051772;28;20025;-61
2022/10/28 01:51:49;;;;;;;27.58;19.52;;;;;;;12.85;100.00;101588.72;5051638;28;20029;-61
2022/10/28 01:54:20;;;;;;;29.30;20.83;;;;;;;12.79;100.00;101584.41;5051594;28;20067;-61
2022/10/28 01:56:47;;;;;;;27.63;19.23;;;;;;;12.78;100.00;101583.59;5051684;28;20032;-61
2022/10/28 01:59:17;;;;;;;26.67;19.10;;;;;;;12.80;100.00;101591.59;5051577;28;20422;-60
2022/10/28 02:01:42;;;;;;;27.42;20.15;;;;;;;12.78;100.00;101586.38;5051343;28;20029;-61
2022/10/28 02:04:08;;;;;;;29.38;20.45;;;;;;;12.78;100.00;101588.31;5051364;28;20017;-61
2022/10/28 02:06:33;;;;;;;27.58;19.65;;;;;;;12.76;100.00;101585.00;5051396;28;20500;-61
2022/10/28 02:09:05;;;;;;;30.08;19.20;;;;;;;12.74;100.00;101582.53;5051486;28;20310;-60
2022/10/28 02:12:07;;;;;;;27.30;19.25;;;;;;;12.72;100.00;101590.34;5051296;28;20025;-60
2022/10/28 02:15:08;;;;;;;29.30;19.92;;;;;;;12.71;100.00;101585.09;5051121;28;20060;-61
2022/10/28 02:18:10;;;;;;;26.63;19.60;;;;;;;12.69;100.00;101585.41;5051489;28;20076;-60
2022/10/28 02:20:58;;;;;;;25.60;19.23;;;;;;;12.67;100.00;101584.88;5051281;28;20103;-60
2022/10/28 02:23:23;;;;;;;27.27;19.50;;;;;;;12.63;100.00;101583.81;5051500;28;20075;-60
2022/10/28 02:26:18;;;;;;;28.30;18.98;;;;;;;12.60;100.00;101588.03;5051230;28;20029;-60
2022/10/28 02:29:02;;;;;;;27.58;19.02;;;;;;;12.57;100.00;101585.03;5051407;28;20499;-61
2022/10/28 02:31:50;;;;;;;27.33;19.90;;;;;;;12.55;100.00;101585.34;5051026;28;20091;-60
2022/10/28 02:34:20;;;;;;;26.40;19.70;;;;;;;12.51;100.00;101592.63;5049740;28;20067;-61
2022/10/28 02:36:50;;;;;;;29.05;19.55;;;;;;;12.46;100.00;101579.66;5051381;28;20389;-60
2022/10/28 02:39:17;;;;;;;26.50;19.50;;;;;;;12.43;100.00;101583.00;5053713;28;20396;-60
2022/10/28 02:42:23;;;;;;;27.15;19.20;;;;;;;12.46;100.00;101587.97;5054666;28;20037;-60
2022/10/28 02:44:54;;;;;;;28.88;19.25;;;;;;;12.43;100.00;101569.13;5054900;28;20021;-60
2022/10/28 02:47:25;;;;;;;26.27;18.95;;;;;;;12.39;100.00;101570.88;5054588;28;20040;-60
2022/10/28 02:49:57;;;;;;;25.77;19.35;;;;;;;12.41;100.00;101573.34;5054521;28;20087;-60
2022/10/28 02:52:26;;;;;;;27.25;19.38;;;;;;;12.35;100.00;101571.78;5054643;28;20045;-60
2022/10/28 02:54:57;;;;;;;26.42;19.13;;;;;;;12.33;100.00;101569.28;5054481;28;20036;-60
2022/10/28 02:57:31;;;;;;;30.27;19.58;;;;;;;12.30;100.00;101573.50;5054394;28;20047;-59
2022/10/28 03:00:04;;;;;;;26.42;18.52;;;;;;;12.28;100.00;101563.81;5054198;28;20087;-60
2022/10/28 03:02:30;;;;;;;27.17;18.73;;;;;;;12.30;100.00;101572.69;5054206;28;20124;-60
2022/10/28 03:04:55;;;;;;;28.83;19.33;;;;;;;12.25;100.00;101575.50;5052866;28;20108;-61
2022/10/28 03:07:21;;;;;;;25.38;18.98;;;;;;;12.22;100.00;101576.94;5054349;28;20028;-60
2022/10/28 03:09:46;;;;;;;25.65;18.45;;;;;;;12.19;100.00;101571.19;5054254;28;20029;-61
2022/10/28 03:12:12;;;;;;;29.63;18.67;;;;;;;12.16;100.00;101565.09;5054026;28;20036;-60
2022/10/28 03:14:37;;;;;;;25.88;18.77;;;;;;;12.15;100.00;101563.44;5054129;28;20036;-60
2022/10/28 03:17:02;;;;;;;30.48;19.67;;;;;;;12.11;100.00;101567.13;5054068;28;20029;-61
2022/10/28 03:19:28;;;;;;;24.60;18.75;;;;;;;12.09;100.00;101578.50;5053951;28;20041;-60
2022/10/28 03:21:53;;;;;;;26.42;19.27;;;;;;;12.08;100.00;101574.09;5054334;28;20480;-60
2022/10/28 03:24:19;;;;;;;26.27;18.67;;;;;;;12.01;100.00;101560.59;5053955;28;20079;-60
2022/10/28 03:26:44;;;;;;;28.30;19.05;;;;;;;11.99;100.00;101567.56;5053569;28;20130;-60
2022/10/28 03:29:09;;;;;;;26.42;19.40;;;;;;;11.94;100.00;101564.84;5053599;28;20106;-61
2022/10/28 03:31:34;;;;;;;26.05;18.33;;;;;;;11.92;100.00;101562.34;5053774;28;20472;-61
2022/10/28 03:34:00;;;;;;;26.48;18.42;;;;;;;11.92;100.00;101559.56;5053882;28;20105;-60
2022/10/28 03:36:25;;;;;;;27.42;18.63;;;;;;;11.88;100.00;101557.69;5053968;28;20020;-61
2022/10/28 03:38:51;;;;;;;28.15;18.63;;;;;;;11.85;100.00;101562.69;5053559;28;20037;-60
2022/10/28 03:41:16;;;;;;;28.80;18.70;;;;;;;11.84;100.00;101566.63;5053552;28;20037;-60
2022/10/28 03:43:41;;;;;;;26.63;18.70;;;;;;;11.80;100.00;101565.56;5053426;28;20025;-60
2022/10/28 03:46:06;;;;;;;28.80;18.50;;;;;;;11.80;100.00;101565.56;5053262;28;20465;-61
2022/10/28 03:48:32;;;;;;;27.45;18.52;;;;;;;11.79;100.00;101560.31;5053160;28;20035;-60
2022/10/28 03:50:57;;;;;;;26.02;19.13;;;;;;;11.82;100.00;101562.47;5053221;28;20095;-60
2022/10/28 03:53:22;;;;;;;28.38;18.98;;;;;;;11.82;100.00;101560.53;5053587;28;20024;-60
2022/10/28 03:55:56;;;;;;;25.27;17.65;;;;;;;11.84;100.00;101563.00;5053502;28;20545;-60
2022/10/28 03:58:21;;;;;;;25.35;18.10;;;;;;;11.84;100.00;101563.00;5053613;28;20037;-60
2022/10/28 04:00:48;;;;;;;26.83;17.80;;;;;;;11.85;100.00;101559.13;5053368;28;20040;-61
2022/10/28 04:03:14;;;;;;;26.35;18.52;;;;;;;11.86;100.00;101556.03;5053212;28;20017;-60
2022/10/28 04:05:39;;;;;;;26.58;18.05;;;;;;;11.85;100.00;101557.16;5053045;28;20025;-60
2022/10/28 04:08:05;;;;;;;26.30;17.67;;;;;;;11.90;100.00;101555.47;5053163;28;20128;-60
2022/10/28 04:10:30;;;;;;;26.15;17.92;;;;;;;11.85;100.00;101551.63;5052855;28;20104;-60
2022/10/28 04:13:00;;;;;;;25.73;18.33;;;;;;;11.85;100.00;101548.84;5053321;28;20479;-60
2022/10/28 04:15:26;;;;;;;26.65;18.17;;;;;;;11.83;100.00;101553.88;5052685;28;20032;-61
2022/10/28 04:17:51;;;;;;;26.23;17.70;;;;;;;11.85;100.00;101556.34;5052872;28;20040;-60
2022/10/28 04:20:16;;;;;;;27.45;17.83;;;;;;;11.81;100.00;101561.66;5052648;28;20075;-60
2022/10/28 04:22:42;;;;;;;25.92;17.30;;;;;;;11.79;100.00;101557.53;5052775;28;20032;-60
2022/10/28 04:25:07;;;;;;;28.40;19.50;;;;;;;11.78;100.00;101553.94;5052653;28;20025;-61
2022/10/28 04:27:32;;;;;;;27.52;18.25;;;;;;;11.76;100.00;101560.91;5052689;28;20046;-60
2022/10/28 04:29:57;;;;;;;25.90;17.65;;;;;;;11.75;100.00;101560.09;5052471;28;20032;-60
2022/10/28 04:32:23;;;;;;;25.60;17.42;;;;;;;11.70;100.00;101565.69;5052417;28;20119;-60
2022/10/28 04:34:48;;;;;;;27.85;17.65;;;;;;;11.67;100.00;101560.72;5052354;28;20033;-61
2022/10/28 04:37:13;;;;;;;25.25;17.35;;;;;;;11.64;100.00;101564.09;5052742;28;20029;-60
2022/10/28 04:39:39;;;;;;;25.25;17.02;;;;;;;11.64;100.00;101566.88;5052439;28;20033;-60
2022/10/28 04:42:04;;;;;;;24.33;17.63;;;;;;;11.63;100.00;101565.22;5052475;28;20020;-61
2022/10/28 04:44:29;;;;;;;26.20;17.83;;;;;;;11.60;100.00;101561.09;5052610;28;20025;-61
2022/10/28 04:46:55;;;;;;;26.50;18.17;;;;;;;11.59;100.00;101559.44;5052307;28;20036;-60
2022/10/28 04:49:21;;;;;;;27.13;17.70;;;;;;;11.57;100.00;101558.91;5052466;28;20029;-61
2022/10/28 04:51:46;;;;;;;28.85;18.30;;;;;;;11.57;100.00;101563.66;5052332;28;20032;-60
2022/10/28 04:54:11;;;;;;;24.98;17.55;;;;;;;11.52;100.00;101565.34;5051121;28;20046;-60
2022/10/28 04:56:36;;;;;;;25.02;17.08;;;;;;;11.50;100.00;101564.81;5052337;28;20078;-60
2022/10/28 04:59:02;;;;;;;25.30;17.27;;;;;;;11.49;100.00;101565.91;5052273;28;20021;-61
2022/10/28 05:01:27;;;;;;;27.40;17.73;;;;;;;11.46;100.00;101549.91;5051402;28;20109;-60
2022/10/28 05:03:53;;;;;;;25.42;18.00;;;;;;;11.45;100.00;101564.88;5052193;28;20357;-60
2022/10/28 05:06:18;;;;;;;26.85;17.10;;;;;;;11.41;100.00;101561.03;5052332;28;20025;-61
2022/10/28 05:08:43;;;;;;;29.30;17.08;;;;;;;11.39;100.00;101557.72;5052220;28;20028;-61
2022/10/28 05:11:09;;;;;;;25.88;17.63;;;;;;;11.37;100.00;101559.97;5052174;28;20056;-61
2022/10/28 05:13:34;;;;;;;26.25;17.48;;;;;;;11.36;100.00;101553.59;5051960;28;20035;-61
2022/10/28 05:15:59;;;;;;;25.38;17.08;;;;;;;11.35;100.00;101551.94;5052054;28;20029;-60
2022/10/28 05:18:24;;;;;;;27.70;18.35;;;;;;;11.33;100.00;101562.53;5051794;28;20064;-60
2022/10/28 05:20:53;;;;;;;26.30;17.77;;;;;;;11.32;100.00;101554.47;5051960;28;20033;-60
2022/10/28 05:23:22;;;;;;;27.80;17.85;;;;;;;11.32;100.00;101552.56;5051846;28;20207;-60
2022/10/28 05:25:48;;;;;;;24.95;17.30;;;;;;;11.35;100.00;101559.44;5051569;28;20450;-60
2022/10/28 05:28:14;;;;;;;27.73;17.58;;;;;;;11.35;100.00;101551.94;5051853;28;20021;-61
2022/10/28 05:30:39;;;;;;;25.38;17.30;;;;;;;11.36;100.00;101550.03;5051516;28;20460;-61
2022/10/28 05:33:04;;;;;;;28.27;18.77;;;;;;;11.33;100.00;101547.81;5051887;28;20021;-61
2022/10/28 05:35:30;;;;;;;31.85;20.55;;;;;;;11.34;100.00;101549.47;5051652;28;20045;-61
2022/10/28 05:37:56;;;;;;;27.38;18.75;;;;;;;11.34;100.00;101536.44;5051655;28;20021;-61
2022/10/28 05:40:22;;;;;;;27.83;19.13;;;;;;;11.36;100.00;101533.41;5051530;28;20096;-61
2022/10/28 05:42:47;;;;;;;28.75;20.40;;;;;;;11.34;100.00;101535.63;5051677;28;20024;-61
2022/10/28 05:45:12;;;;;;;27.73;17.83;;;;;;;11.38;100.00;101545.03;5051681;28;20499;-61
2022/10/28 05:47:43;;;;;;;27.67;18.20;;;;;;;11.40;100.00;101542.75;5051497;28;20388;-61
2022/10/28 05:50:09;;;;;;;26.85;17.83;;;;;;;11.38;100.00;101533.94;5051705;28;20087;-60
2022/10/28 05:52:34;;;;;;;28.55;18.13;;;;;;;11.45;100.00;101545.47;5051777;28;20463;-61
2022/10/28 05:54:59;;;;;;;29.17;18.30;;;;;;;11.50;100.00;101552.91;5051604;28;20017;-61
2022/10/28 05:57:24;;;;;;;24.42;16.88;;;;;;;11.48;100.00;101549.59;5051657;28;20025;-61
2022/10/28 05:59:50;;;;;;;26.42;18.00;;;;;;;11.50;100.00;101547.38;5051575;28;20048;-61
2022/10/28 06:02:15;;;;;;;26.65;16.90;;;;;;;11.50;100.00;101552.91;5051463;28;20032;-61
2022/10/28 06:04:41;;;;;;;29.08;17.45;;;;;;;11.50;100.00;101548.19;5050170;28;20162;-60
2022/10/28 06:07:06;;;;;;;25.83;16.95;;;;;;;11.54;100.00;101545.63;5051582;28;20029;-61
2022/10/28 06:09:32;;;;;;;27.13;17.80;;;;;;;11.59;100.00;101551.13;5050005;28;20445;-60
2022/10/28 06:11:57;;;;;;;27.85;18.65;;;;;;;11.58;100.00;101552.25;5051931;28;20078;-61
2022/10/28 06:14:22;;;;;;;27.25;19.70;;;;;;;11.61;100.00;101550.81;5055035;28;20032;-61
2022/10/28 06:16:48;;;;;;;27.58;18.65;;;;;;;11.66;100.00;101559.09;5055250;28;20499;-61
2022/10/28 06:19:13;;;;;;;25.85;18.38;;;;;;;11.68;100.00;101557.66;5055007;28;20033;-61
2022/10/28 06:21:38;;;;;;;25.40;18.08;;;;;;;11.69;100.00;101558.47;5055071;28;20029;-61
2022/10/28 06:24:04;;;;;;;25.65;17.27;;;;;;;11.69;100.00;101556.56;5055077;28;20044;-61
2022/10/28 06:26:29;;;;;;;26.20;17.73;;;;;;;11.74;100.00;101561.22;5055014;28;20053;-61
2022/10/28 06:28:54;;;;;;;25.88;17.17;;;;;;;11.76;100.00;101567.25;5054814;28;20360;-61
2022/10/28 06:31:20;;;;;;;26.27;17.10;;;;;;;11.78;100.00;101562.25;5054779;28;20029;-61
2022/10/28 06:33:45;;;;;;;26.70;17.67;;;;;;;11.79;100.00;101561.13;5054607;28;20100;-61
2022/10/28 06:36:10;;;;;;;26.73;17.35;;;;;;;11.83;100.00;101559.44;5054548;28;20025;-61
2022/10/28 06:38:35;;;;;;;26.80;18.05;;;;;;;11.88;100.00;101558.53;5054440;28;20037;-60
2022/10/28 06:41:01;;;;;;;29.33;19.20;;;;;;;11.92;100.00;101558.75;5054835;28;20079;-61
2022/10/28 06:43:26;;;;;;;26.50;16.48;;;;;;;11.95;100.00;101556.22;5053449;28;20108;-61
2022/10/28 06:45:55;;;;;;;28.17;17.42;;;;;;;12.00;100.00;101564.47;5054448;28;20029;-61
2022/10/28 06:48:21;;;;;;;27.58;16.98;;;;;;;12.05;100.00;101558.03;5054427;28;20103;-61
2022/10/28 06:50:47;;;;;;;26.10;16.48;;;;;;;12.08;100.00;101556.63;5054224;28;20087;-61
2022/10/28 06:53:12;;;;;;;27.05;17.23;;;;;;;12.12;100.00;101552.13;5054301;28;20396;-61
2022/10/28 06:55:37;;;;;;;24.23;16.15;;;;;;;12.15;100.00;101557.09;5054226;28;20429;-60
2022/10/28 06:58:03;;;;;;;24.88;15.57;;;;;;;12.17;100.00;101563.16;5054150;28;20372;-60
2022/10/28 07:00:30;;;;;;;27.02;16.73;;;;;;;12.22;100.00;101551.16;5054375;28;20075;-61
2022/10/28 07:02:55;;;;;;;23.73;16.02;;;;;;;12.25;100.00;101556.94;5054275;28;20041;-61
2022/10/28 07:05:23;;;;;;;23.70;15.30;;;;;;;12.22;100.00;101553.94;5054236;28;20029;-60
2022/10/28 07:07:48;;;;;;;26.75;15.98;;;;;;;12.25;100.00;101558.88;5052719;28;20161;-60
2022/10/28 07:10:14;;;;;;;27.63;16.52;;;;;;;12.31;100.00;101560.47;5053991;28;20393;-61
2022/10/28 07:12:39;;;;;;;26.65;16.60;;;;;;;12.34;100.00;101559.84;5053913;28;20219;-61
2022/10/28 07:15:05;;;;;;;26.17;17.05;;;;;;;12.40;100.00;101560.59;5053917;28;20029;-61
2022/10/28 07:17:30;;;;;;;27.08;16.27;;;;;;;12.46;100.00;101563.00;5053778;28;20029;-61
2022/10/28 07:19:56;;;;;;;25.73;16.45;;;;;;;12.53;100.00;101564.56;5053903;28;20017;-60
2022/10/28 07:22:21;;;;;;;25.17;16.50;;;;;;;12.59;100.00;101563.38;5053869;28;20029;-60
2022/10/28 07:24:46;;;;;;;28.08;17.10;;;;;;;12.68;100.00;101560.69;5053183;28;20449;-61
2022/10/28 07:27:12;;;;;;;24.85;16.02;;;;;;;12.75;100.00;101553.66;5053242;28;20045;-61
2022/10/28 07:29:37;;;;;;;24.83;16.27;;;;;;;12.84;100.00;101567.66;5053636;28;20021;-60
2022/10/28 07:32:02;;;;;;;24.58;16.52;;;;;;;12.94;100.00;101561.09;5053529;28;20311;-60
2022/10/28 07:34:28;;;;;;;29.65;16.38;;;;;;;13.08;100.00;101577.78;5053739;28;20025;-61
2022/10/28 07:36:54;;;;;;;25.20;16.52;;;;;;;13.17;100.00;101580.72;5053672;28;20029;-61
2022/10/28 07:39:20;;;;;;;26.50;15.35;;;;;;;13.27;100.00;101581.34;5053575;28;20503;-60
2022/10/28 07:41:46;;;;;;;26.92;15.32;;;;;;;13.38;100.00;101579.16;5053358;28;20033;-60
2022/10/28 07:44:12;;;;;;;25.35;15.40;;;;;;;13.48;100.00;101578.19;5053559;28;20033;-61
2022/10/28 07:46:37;;;;;;;25.02;15.32;;;;;;;13.62;100.00;101572.63;5053704;28;20036;-61
2022/10/28 07:49:03;;;;;;;25.92;15.88;;;;;;;13.72;100.00;101575.22;5053440;28;20028;-61
2022/10/28 07:51:28;;;;;;;24.42;15.20;;;;;;;13.86;100.00;101568.81;5053463;28;20079;-61
2022/10/28 07:53:55;;;;;;;26.55;15.02;;;;;;;13.99;100.00;101567.13;5053347;28;20043;-61
2022/10/28 07:56:20;;;;;;;27.00;15.25;;;;;;;14.10;100.00;101570.53;5053137;28;20060;-61
2022/10/28 07:58:45;;;;;;;23.98;15.25;;;;;;;14.19;100.00;101566.69;5053126;28;20060;-61
2022/10/28 08:01:13;;;;;;;25.42;15.43;;;;;;;14.31;100.00;101563.34;5053185;28;20445;-59
2022/10/28 08:03:39;;;;;;;24.60;14.38;;;;;;;14.42;100.00;101560.31;5053104;28;20066;-61
2022/10/28 08:06:16;;;;;;;25.10;15.38;;;;;;;14.51;100.00;101555.63;5053302;28;20107;-61
2022/10/28 08:08:43;;;;;;;23.17;14.30;;;;;;;14.60;100.00;101553.75;5052959;28;20207;-61
2022/10/28 08:11:10;;;;;;;25.88;14.95;;;;;;;14.69;100.00;101566.97;5052687;28;20103;-60
2022/10/28 08:13:35;;;;;;;27.02;15.57;;;;;;;14.80;100.00;101569.16;5052735;28;20033;-60
2022/10/28 08:16:01;;;;;;;24.88;16.30;;;;;;;14.91;100.00;101564.16;5051446;28;20113;-60
2022/10/28 08:18:26;;;;;;;26.17;15.55;;;;;;;15.00;100.00;101563.38;5052700;28;20075;-60
2022/10/28 08:20:51;;;;;;;27.25;14.23;;;;;;;15.10;100.00;101568.69;5052785;28;20071;-60
2022/10/28 08:23:17;;;;;;;25.92;15.07;;;;;;;15.22;100.00;101568.91;5052688;28;20107;-60
2022/10/28 08:25:49;;;;;;;26.05;15.02;;;;;;;15.33;100.00;101574.22;5052247;28;20037;-61
2022/10/28 08:28:15;;;;;;;25.57;15.53;;;;;;;15.38;100.00;101580.47;5052736;28;20044;-61
2022/10/28 08:30:40;;;;;;;25.48;14.57;;;;;;;15.42;100.00;101587.03;5052449;28;20027;-61
2022/10/28 08:33:05;;;;;;;26.50;16.40;;;;;;;15.50;100.00;101591.00;5052461;28;20051;-61
2022/10/28 08:35:31;;;;;;;26.25;15.63;;;;;;;15.55;100.00;101593.66;5052267;28;20039;-60
2022/10/28 08:37:56;;;;;;;28.13;16.30;;;;;;;15.61;100.00;101585.97;5052261;28;20423;-60
2022/10/28 08:40:33;;;;;;;26.15;15.30;;;;;;;15.62;100.00;101579.25;5052570;28;20044;-60
2022/10/28 08:43:07;;;;;;;26.70;15.25;;;;;;;15.63;100.00;101572.53;5052759;28;20488;-62
2022/10/28 08:45:52;;;;;;;24.77;14.85;;;;;;;15.70;100.00;101583.22;5052763;28;20029;-62
2022/10/28 08:48:30;;;;;;;25.52;14.15;;;;;;;15.73;100.00;101576.97;5052772;28;20035;-62
2022/10/28 08:51:03;;;;;;;26.60;14.07;;;;;;;15.81;100.00;101579.00;5051566;28;20561;-61
2022/10/28 08:53:38;;;;;;;26.08;15.43;;;;;;;15.90;100.00;101579.03;5052376;28;20028;-61
2022/10/28 08:56:14;;;;;;;25.30;14.50;;;;;;;16.03;100.00;101571.66;5052733;28;20036;-62
2022/10/28 08:58:43;;;;;;;24.08;15.77;;;;;;;16.08;100.00;101556.72;5052113;28;20032;-61
2022/10/28 09:01:18;;;;;;;26.55;14.82;;;;;;;16.27;100.00;101562.81;5052188;28;20029;-61
2022/10/28 09:03:47;;;;;;;24.10;14.60;;;;;;;16.42;100.00;101569.88;5051795;28;20025;-61
2022/10/28 09:06:13;;;;;;;26.30;15.15;;;;;;;16.50;100.00;101571.84;5052179;28;20083;-61
2022/10/28 09:08:41;;;;;;;24.63;15.20;;;;;;;16.59;100.00;101577.44;5051781;28;20021;-61
2022/10/28 09:11:09;;;;;;;26.10;15.00;;;;;;;16.67;100.00;101581.41;5051807;28;20056;-61
2022/10/28 09:13:40;;;;;;;24.80;14.63;;;;;;;16.74;100.00;101581.72;5051781;28;20029;-62
2022/10/28 09:16:28;;;;;;;24.25;14.60;;;;;;;16.79;100.00;101587.09;5051657;28;20021;-62
2022/10/28 09:19:00;;;;;;;24.20;14.38;;;;;;;16.86;99.79;101588.59;5051815;28;20036;-62
2022/10/28 09:21:39;;;;;;;25.98;14.80;;;;;;;16.91;99.99;101583.63;5052076;28;20166;-61
2022/10/28 09:24:19;;;;;;;26.50;14.23;;;;;;;16.96;100.00;101591.88;5051757;28;20029;-60
2022/10/28 09:27:02;;;;;;;25.75;14.93;;;;;;;16.98;100.00;101591.56;5051774;28;20045;-61
2022/10/28 09:30:00;;;;;;;25.83;13.98;;;;;;;17.12;99.40;101594.16;5051754;28;20036;-61
2022/10/28 09:32:38;;;;;;;24.23;14.27;;;;;;;17.29;99.16;101590.50;5028010;28;20052;-61
2022/10/28 09:35:10;;;;;;;22.15;14.25;;;;;;;17.43;98.89;101587.47;5051874;28;20132;-61
2022/10/28 09:37:48;;;;;;;27.60;15.15;;;;;;;17.53;98.67;101589.91;5051647;28;20370;-61
2022/10/28 09:40:26;;;;;;;24.65;15.10;;;;;;;17.64;98.39;101595.13;5051773;28;20037;-62
2022/10/28 09:43:00;;;;;;;28.27;15.00;;;;;;;17.71;97.39;101601.00;5051703;28;20073;-61
2022/10/28 09:45:29;;;;;;;25.27;14.30;;;;;;;17.71;96.76;101604.63;5052074;28;20120;-61
2022/10/28 09:48:04;;;;;;;25.00;14.85;;;;;;;17.74;96.80;101600.34;5053987;28;20029;-61
2022/10/28 09:50:31;;;;;;;25.20;14.75;;;;;;;17.75;97.47;101602.78;5055536;28;20064;-60
2022/10/28 09:53:27;;;;;;;24.30;14.38;;;;;;;17.79;98.30;101597.34;5053950;28;20021;-60
2022/10/28 09:55:53;;;;;;;25.05;14.38;;;;;;;17.86;97.31;101589.22;5055584;28;20075;-61
2022/10/28 09:58:19;;;;;;;23.42;14.13;;;;;;;17.98;96.74;101594.16;5055446;28;20477;-60
2022/10/28 10:00:44;;;;;;;24.83;15.07;;;;;;;18.08;96.12;101595.72;5055243;28;20047;-61
2022/10/28 10:03:09;;;;;;;24.02;13.38;;;;;;;18.17;95.37;101599.28;5055232;28;20092;-61
2022/10/28 10:05:41;;;;;;;25.33;13.85;;;;;;;18.25;94.47;101600.41;5055358;28;20465;-61
2022/10/28 10:08:12;;;;;;;26.23;13.60;;;;;;;18.35;93.51;101600.00;5055300;28;20033;-61
2022/10/28 10:10:59;;;;;;;23.38;14.25;;;;;;;18.45;94.43;101595.94;5055274;28;20098;-60
2022/10/28 10:13:33;;;;;;;25.25;14.38;;;;;;;18.56;93.56;101590.78;5055246;28;20421;-62
2022/10/28 10:16:08;;;;;;;23.40;13.35;;;;;;;18.65;90.68;101591.50;5055063;28;20029;-60
2022/10/28 10:18:33;;;;;;;25.95;13.65;;;;;;;18.71;90.47;101601.34;5055022;28;20033;-60
2022/10/28 10:20:59;;;;;;;23.15;12.75;;;;;;;18.79;90.79;101591.22;5054774;28;20078;-61
2022/10/28 10:23:36;;;;;;;24.55;13.25;;;;;;;18.86;90.29;101588.66;5054778;28;20040;-61
2022/10/28 10:26:05;;;;;;;22.80;12.82;;;;;;;19.00;89.21;101593.16;5054792;28;20041;-61
2022/10/28 10:28:32;;;;;;;25.77;12.73;;;;;;;19.09;86.47;101599.50;5055180;28;20025;-61
2022/10/28 10:31:01;;;;;;;24.10;12.98;;;;;;;19.18;86.99;101586.19;5054668;28;20021;-61
2022/10/28 10:33:31;;;;;;;23.30;12.20;;;;;;;19.27;85.32;101583.31;5054751;28;20025;-62
2022/10/28 10:36:00;;;;;;;23.42;12.35;;;;;;;19.37;84.39;101586.81;5055240;28;20025;-60
2022/10/28 10:38:27;;;;;;;25.98;12.98;;;;;;;19.44;83.46;101596.31;5054911;28;20103;-61
2022/10/28 10:40:53;;;;;;;22.88;12.15;;;;;;;19.52;82.47;101585.31;5054732;28;20036;-61
2022/10/28 10:43:26;;;;;;;27.02;13.18;;;;;;;19.55;84.27;101585.44;5054632;28;20127;-61
2022/10/28 10:46:15;;;;;;;25.20;12.60;;;;;;;19.60;84.73;101585.19;5054670;28;20098;-61
2022/10/28 10:48:41;;;;;;;23.27;12.10;;;;;;;19.67;82.79;101587.41;5054413;28;20468;-61
2022/10/28 10:51:08;;;;;;;24.45;12.73;;;;;;;19.76;81.78;101576.09;5054313;28;20075;-61
2022/10/28 10:53:34;;;;;;;23.83;12.60;;;;;;;19.85;81.08;101573.13;5054352;28;20032;-61
2022/10/28 10:56:03;;;;;;;23.20;12.10;;;;;;;19.92;79.80;101565.78;5054250;28;20029;-61
2022/10/28 10:58:33;;;;;;;23.83;12.90;;;;;;;20.06;79.79;101559.00;5053159;28;20025;-62
2022/10/28 11:01:01;;;;;;;23.38;12.07;;;;;;;20.17;77.73;101553.69;5054333;28;20038;-61
2022/10/28 11:03:35;;;;;;;22.75;12.60;;;;;;;20.25;78.60;101552.75;5054220;28;20028;-61
2022/10/28 11:06:01;;;;;;;;;;;;;;;20.31;78.60;101547.69;5054637;28;20029;-59
2022/10/28 11:08:33;;;;;;;22.75;12.70;;;;;;;20.41;75.65;101564.03;5054001;28;19908;-59
2022/10/28 11:11:06;;;;;;;28.90;12.45;;;;;;;20.51;74.68;101565.53;5054124;28;20017;-59
2022/10/28 11:13:32;;;;;;;;;;;;;;;20.58;79.16;101572.19;5054731;28;20032;-59
2022/10/28 11:16:14;;;;;;;23.15;11.70;;;;;;;20.70;73.67;101562.06;5053948;28;19935;-62